TFM - Tactical Decision Aid
ID: Runway Winds: CIG/VIS Threshold:

KPEQ - Pecos Muni, TX, US

Updated at: 1353 UTC 26 Feb 2021
Latest TAF at: 1120 UTC 26 Feb 2021

TAF Board

Time1335Z 26/14Z 26/15Z 26/16Z 26/17Z 26/18Z 26/19Z 26/20Z 26/21Z 26/22Z 26/23Z 27/00Z 27/01Z 27/02Z>>
Type OBS PRVL PRVL PRVL PRVL PRVL PRVL PRVL PRVL PRVL PRVL PRVL PRVL PRVL
VIS 10 >6 >6 >6 >6 >6 >6 >6 >6 >6 >6 >6 >6 >6
CIG -- -- -- -- -- -- -- -- -- -- -- -- -- --
Cover CLR SCT SCT SCT SCT SCT SCT SCT SCT SCT SCT SCT SCT SCT
FltCat VFR VFR VFR VFR VFR VFR VFR VFR VFR VFR VFR VFR VFR VFR
WX -- -- -- -- -- -- -- -- -- -- -- -- -- --
WDir VRB 250 250 250 250 250 250 250 250 250 250 250 250 250
WSpd 0 6 6 6 6 6 6 6 6 6 6 6 6 6
WGst -- -- -- -- -- -- -- -- -- -- -- -- -- --

TDA Impact Legend

  None Marginal Slight Moderate High
Visibility (sm) >5 3≤X≤5 2≤X<3 1≤X<2 <1
Ceiling (100 ft) >30 10≤X≤30 8≤X<10 5≤X<8 <5
Wind Speed (kt) <15 15≤X<25 25≤X<30 ≥30
Wind Gust (kt) <15 15≤X<25 25≤X<35 ≥35
Weather No Wx Reported VCTS -TS,-FZRA TS,FZRA +TS,+FZRA
TAF
KPEQ 261120Z 2612/2712 25006KT P6SM SCT250

METAR
KPEQ 261335Z AUTO 00000KT 10SM CLR M02/M03 A3000 RMK AO2 T10171031
KPEQ 261315Z AUTO 26004KT 10SM CLR M02/M03 A3000 RMK AO2 T10161035
KPEQ 261255Z AUTO 26003KT 10SM CLR M01/M03 A3000 RMK AO2 T10111027
KPEQ 261235Z AUTO 31003KT 10SM CLR M01/M03 A3000 RMK AO2 T10061026
KPEQ 261215Z AUTO 00000KT 10SM CLR M01/M03 A3000 RMK AO2 T10061026
KPEQ 261155Z AUTO 00000KT 10SM CLR 00/M02 A3002 RMK AO2 T10051024 10049 21017
KPEQ 261135Z AUTO 00000KT 10SM CLR M01/M02 A3003 RMK AO2 T10101025
KPEQ 261115Z AUTO 00000KT 10SM CLR M01/M02 A3003 RMK AO2 T10071025
KPEQ 261055Z AUTO 00000KT 10SM CLR M01/M03 A3003 RMK AO2 T10141028
KPEQ 261035Z AUTO 00000KT 10SM CLR M01/M03 A3002 RMK AO2 T10081033

Radar Display
Forecast Discussion